createdAt,value
2023-03-30T00:01:15.382Z,6.40
2023-03-30T00:03:43.429Z,6.40
2023-03-30T00:06:11.667Z,6.40
2023-03-30T00:08:38.748Z,6.50
2023-03-30T00:11:10.284Z,6.50
2023-03-30T00:13:37.932Z,6.50
2023-03-30T00:16:07.085Z,6.50
2023-03-30T00:18:34.814Z,6.60
2023-03-30T00:21:05.798Z,6.60
2023-03-30T00:23:33.848Z,6.60
2023-03-30T00:26:01.008Z,6.70
2023-03-30T00:28:30.896Z,6.70
2023-03-30T00:30:58.111Z,6.70
2023-03-30T00:33:37.160Z,6.70
2023-03-30T00:36:09.273Z,6.70
2023-03-30T00:38:36.305Z,6.70
2023-03-30T00:41:03.448Z,6.70
2023-03-30T00:43:30.829Z,6.70
2023-03-30T00:45:58.512Z,6.70
2023-03-30T00:48:36.972Z,6.70
2023-03-30T00:51:11.464Z,6.70
2023-03-30T00:53:43.375Z,6.60
2023-03-30T00:56:13.174Z,6.60
2023-03-30T00:58:41.416Z,6.60
2023-03-30T01:01:13.320Z,6.60
2023-03-30T01:03:52.182Z,6.50
2023-03-30T01:06:24.583Z,6.50
2023-03-30T01:08:53.303Z,6.50
2023-03-30T01:11:21.305Z,6.40
2023-03-30T01:13:54.682Z,6.40
2023-03-30T01:16:44.236Z,6.40
2023-03-30T01:19:36.283Z,6.40
2023-03-30T01:22:13.041Z,6.40
2023-03-30T01:25:20.652Z,6.40
2023-03-30T01:28:28.786Z,6.40
2023-03-30T01:31:07.566Z,6.50
2023-03-30T01:34:23.988Z,6.50
2023-03-30T01:37:00.027Z,6.50
2023-03-30T01:39:37.238Z,6.50
2023-03-30T01:42:19.978Z,6.50
2023-03-30T01:45:00.735Z,6.50
2023-03-30T01:47:30.717Z,6.50
2023-03-30T01:50:25.959Z,6.60
2023-03-30T01:52:55.823Z,6.70
2023-03-30T01:55:28.478Z,6.60
2023-03-30T01:58:01.700Z,6.70
2023-03-30T02:00:30.237Z,6.70
2023-03-30T02:03:11.716Z,6.70
2023-03-30T02:05:41.067Z,6.70
2023-03-30T02:08:13.631Z,6.70
2023-03-30T02:10:42.684Z,6.80
2023-03-30T02:13:11.503Z,6.80
2023-03-30T02:15:42.728Z,6.70
2023-03-30T02:18:11.016Z,6.80
2023-03-30T02:20:39.176Z,6.80
2023-03-30T02:23:07.635Z,6.70
2023-03-30T02:25:38.675Z,6.70
2023-03-30T02:28:09.410Z,6.80
2023-03-30T02:30:42.843Z,6.80
2023-03-30T02:33:24.585Z,6.80
2023-03-30T02:36:14.293Z,6.70
2023-03-30T02:39:05.268Z,6.70
2023-03-30T02:42:01.047Z,6.70
2023-03-30T02:44:36.890Z,6.70
2023-03-30T02:47:13.615Z,6.70
2023-03-30T02:49:43.576Z,6.70
2023-03-30T02:52:37.083Z,6.70
2023-03-30T02:55:26.069Z,6.70
2023-03-30T02:58:23.860Z,6.70
2023-03-30T03:01:11.177Z,6.70
2023-03-30T03:03:44.299Z,6.70
2023-03-30T03:06:14.744Z,6.70
2023-03-30T03:08:44.386Z,6.70
2023-03-30T03:11:11.778Z,6.70
2023-03-30T03:13:39.266Z,6.70
2023-03-30T03:16:11.089Z,6.70
2023-03-30T03:18:42.188Z,6.80
2023-03-30T03:21:11.614Z,6.70
2023-03-30T03:23:38.712Z,6.70
2023-03-30T03:26:06.853Z,6.70
2023-03-30T03:28:34.687Z,6.70
2023-03-30T03:31:02.851Z,6.70
2023-03-30T03:33:32.090Z,6.70
2023-03-30T03:36:00.630Z,6.70
2023-03-30T03:38:28.838Z,6.60
2023-03-30T03:40:58.607Z,6.60
2023-03-30T03:43:26.300Z,6.60
2023-03-30T03:45:53.707Z,6.60
2023-03-30T03:48:22.656Z,6.60
2023-03-30T03:50:59.525Z,6.50
2023-03-30T03:53:28.325Z,6.50
2023-03-30T03:55:55.510Z,6.40
2023-03-30T03:58:23.524Z,6.40
2023-03-30T04:00:51.249Z,6.40
2023-03-30T04:03:18.579Z,6.30
2023-03-30T04:05:45.745Z,6.30
2023-03-30T04:08:12.773Z,6.20
2023-03-30T04:10:41.408Z,6.20
2023-03-30T04:13:08.475Z,6.20
2023-03-30T04:15:35.956Z,6.30
2023-03-30T04:18:05.447Z,6.30
2023-03-30T04:20:32.595Z,6.30
2023-03-30T04:23:02.175Z,6.30
2023-03-30T04:25:29.395Z,6.30
2023-03-30T04:27:57.499Z,6.30
2023-03-30T04:30:24.910Z,6.30
2023-03-30T04:33:02.821Z,6.20
2023-03-30T04:35:34.579Z,6.20
2023-03-30T04:38:02.631Z,6.20
2023-03-30T04:40:30.435Z,6.20
2023-03-30T04:43:02.851Z,6.20
2023-03-30T04:45:33.057Z,6.20
2023-03-30T04:48:00.048Z,6.20
2023-03-30T04:50:27.131Z,6.20
2023-03-30T04:52:54.120Z,6.20
2023-03-30T04:55:21.200Z,6.20
2023-03-30T04:57:48.229Z,6.10
2023-03-30T05:00:17.656Z,6.10
2023-03-30T05:02:44.831Z,6.10
2023-03-30T05:05:12.032Z,6.10
2023-03-30T05:07:39.282Z,6.10
2023-03-30T05:10:06.689Z,6.10
2023-03-30T05:12:33.667Z,6.10
2023-03-30T05:15:00.662Z,6.10
2023-03-30T05:17:27.746Z,6.10
2023-03-30T05:19:54.873Z,6.10
2023-03-30T05:22:21.973Z,6.20
2023-03-30T05:24:48.975Z,6.20
2023-03-30T05:27:16.142Z,6.20
2023-03-30T05:29:43.245Z,6.20
2023-03-30T05:32:10.260Z,6.20
2023-03-30T05:34:37.299Z,6.30
2023-03-30T05:37:04.356Z,6.30
2023-03-30T05:39:31.542Z,6.40
2023-03-30T05:41:58.567Z,6.40
2023-03-30T05:44:26.036Z,6.50
2023-03-30T05:46:54.049Z,6.50
2023-03-30T05:49:21.147Z,6.60
2023-03-30T05:51:48.380Z,6.60
2023-03-30T05:54:15.538Z,6.70
2023-03-30T05:56:42.786Z,6.80
2023-03-30T05:59:10.594Z,6.80
2023-03-30T06:01:38.047Z,6.90
2023-03-30T06:04:05.704Z,6.90
2023-03-30T06:06:32.809Z,6.90
2023-03-30T06:08:59.831Z,7.00
2023-03-30T06:11:28.557Z,7.00
2023-03-30T06:13:55.554Z,7.10
2023-03-30T06:16:22.836Z,7.10
2023-03-30T06:18:50.023Z,7.10
2023-03-30T06:21:17.259Z,7.20
2023-03-30T06:23:44.624Z,7.20
2023-03-30T06:26:11.705Z,7.20
2023-03-30T06:28:38.740Z,7.30
2023-03-30T06:31:12.608Z,7.30
2023-03-30T06:33:41.800Z,7.30
2023-03-30T06:36:15.428Z,7.40
2023-03-30T06:38:45.731Z,7.40
2023-03-30T06:41:13.142Z,7.40
2023-03-30T06:43:40.464Z,7.50
2023-03-30T06:46:08.461Z,7.60
2023-03-30T06:48:35.988Z,7.60
2023-03-30T06:51:04.575Z,7.70
2023-03-30T06:53:31.894Z,7.80
2023-03-30T06:55:59.449Z,7.90
2023-03-30T06:58:27.927Z,8.00
2023-03-30T07:00:55.210Z,8.00
2023-03-30T07:03:22.376Z,8.10
2023-03-30T07:05:50.917Z,8.20
2023-03-30T07:08:19.549Z,8.20
2023-03-30T07:10:48.064Z,8.20
2023-03-30T07:13:16.696Z,8.30
2023-03-30T07:15:46.209Z,8.40
2023-03-30T07:18:13.484Z,8.50
2023-03-30T07:20:40.798Z,8.50
2023-03-30T07:23:08.059Z,8.60
2023-03-30T07:25:35.157Z,8.80
2023-03-30T07:28:02.344Z,9.00
2023-03-30T07:30:29.545Z,9.10
2023-03-30T07:32:58.335Z,9.10
2023-03-30T07:35:26.324Z,9.20
2023-03-30T07:38:02.273Z,9.20
2023-03-30T07:40:30.207Z,9.30
2023-03-30T07:42:57.423Z,9.50
2023-03-30T07:45:24.428Z,9.50
2023-03-30T07:47:51.512Z,9.60
2023-03-30T07:50:18.621Z,9.60
2023-03-30T07:52:45.615Z,9.70
2023-03-30T07:55:13.206Z,9.80
2023-03-30T07:57:40.228Z,10.00
2023-03-30T08:00:10.528Z,10.20
2023-03-30T08:02:38.064Z,10.40
2023-03-30T08:05:05.666Z,10.60
2023-03-30T08:07:34.425Z,10.80
2023-03-30T08:10:01.679Z,10.90
2023-03-30T08:12:28.743Z,11.00
2023-03-30T08:14:58.618Z,11.10
2023-03-30T08:17:26.143Z,11.30
2023-03-30T08:19:53.149Z,11.40
2023-03-30T08:22:20.136Z,11.50
2023-03-30T08:24:47.118Z,11.70
2023-03-30T08:27:14.194Z,11.70
2023-03-30T08:29:41.346Z,11.80
2023-03-30T08:32:08.562Z,11.90
2023-03-30T08:34:37.277Z,11.90
2023-03-30T08:37:05.791Z,11.90
2023-03-30T08:39:33.410Z,11.80
2023-03-30T08:42:19.420Z,11.80
2023-03-30T08:44:52.738Z,11.90
2023-03-30T08:47:33.739Z,11.90
2023-03-30T08:50:11.557Z,12.20
2023-03-30T08:52:42.099Z,12.40
2023-03-30T08:55:38.714Z,12.70
2023-03-30T08:58:11.600Z,12.90
2023-03-30T09:01:11.181Z,13.20
2023-03-30T09:04:02.437Z,13.40
2023-03-30T09:06:50.098Z,13.50
2023-03-30T09:09:19.939Z,13.50
2023-03-30T09:11:53.206Z,13.70
2023-03-30T09:14:34.568Z,13.70
2023-03-30T09:17:17.271Z,13.90
2023-03-30T09:20:13.467Z,14.00
2023-03-30T09:22:42.527Z,14.00
2023-03-30T09:25:34.192Z,14.00
2023-03-30T09:28:17.401Z,14.00
2023-03-30T09:31:03.012Z,14.00
2023-03-30T09:34:08.980Z,14.10
2023-03-30T09:37:04.094Z,14.40
2023-03-30T09:39:34.775Z,14.50
2023-03-30T09:42:17.214Z,14.50
2023-03-30T09:44:52.727Z,14.50
2023-03-30T09:47:28.309Z,14.50
2023-03-30T09:50:00.727Z,14.50
2023-03-30T09:52:30.274Z,14.50
2023-03-30T09:54:57.495Z,14.40
2023-03-30T09:57:32.900Z,14.30
2023-03-30T10:00:01.586Z,14.20
2023-03-30T10:02:31.651Z,14.20
2023-03-30T10:05:02.503Z,14.20
2023-03-30T10:07:34.132Z,14.20
2023-03-30T10:10:13.653Z,14.30
2023-03-30T10:12:40.990Z,14.30
2023-03-30T10:15:16.975Z,14.40
2023-03-30T10:17:46.878Z,14.60
2023-03-30T10:20:21.140Z,14.60
2023-03-30T10:22:52.714Z,14.70
2023-03-30T10:25:23.950Z,14.90
2023-03-30T10:27:56.072Z,14.90
2023-03-30T10:30:28.671Z,15.00
2023-03-30T10:33:02.242Z,15.10
2023-03-30T10:35:36.509Z,15.30
2023-03-30T10:38:07.241Z,15.50
2023-03-30T10:40:41.505Z,15.60
2023-03-30T10:43:20.056Z,15.70
2023-03-30T10:46:06.089Z,15.80
2023-03-30T10:48:48.841Z,15.90
2023-03-30T10:51:39.914Z,15.90
2023-03-30T10:54:21.761Z,15.90
2023-03-30T10:56:52.494Z,15.90
2023-03-30T10:59:55.606Z,15.80
2023-03-30T11:02:26.771Z,15.80
2023-03-30T11:05:05.964Z,15.80
2023-03-30T11:07:45.618Z,15.80
2023-03-30T11:10:17.091Z,15.80
2023-03-30T11:13:03.842Z,15.70
2023-03-30T11:15:56.142Z,15.80
2023-03-30T11:18:31.520Z,15.80
2023-03-30T11:21:45.423Z,15.80
2023-03-30T11:24:20.244Z,15.90
2023-03-30T11:27:17.330Z,16.00
2023-03-30T11:29:48.540Z,16.00
2023-03-30T11:32:34.373Z,16.10
2023-03-30T11:35:36.456Z,16.30
2023-03-30T11:38:28.509Z,16.40
2023-03-30T11:41:15.993Z,16.40
2023-03-30T11:43:43.762Z,16.60
2023-03-30T11:46:24.741Z,16.70
2023-03-30T11:49:17.972Z,16.90
2023-03-30T11:52:01.248Z,17.00
2023-03-30T11:54:43.226Z,17.10
2023-03-30T11:57:25.578Z,17.20
2023-03-30T12:00:09.777Z,17.40
2023-03-30T12:03:02.086Z,17.50
2023-03-30T12:05:36.691Z,17.60
2023-03-30T12:08:26.345Z,17.60
2023-03-30T12:11:14.100Z,17.60
2023-03-30T12:13:50.674Z,17.50
2023-03-30T12:16:27.542Z,17.50
2023-03-30T12:19:04.192Z,17.60
2023-03-30T12:21:39.199Z,17.60
2023-03-30T12:24:29.578Z,17.70
2023-03-30T12:27:05.336Z,17.70
2023-03-30T12:30:01.494Z,17.70
2023-03-30T12:32:31.080Z,17.60
2023-03-30T12:34:58.849Z,17.50
2023-03-30T12:37:38.290Z,17.30
2023-03-30T12:40:22.553Z,17.00
2023-03-30T12:43:11.151Z,16.70
2023-03-30T12:46:02.276Z,16.30
2023-03-30T12:49:04.263Z,16.10
2023-03-30T12:52:09.883Z,16.00
2023-03-30T12:54:44.394Z,15.80
2023-03-30T12:57:22.736Z,15.80
2023-03-30T12:59:49.846Z,15.70
2023-03-30T13:02:55.220Z,15.60
2023-03-30T13:05:32.254Z,15.50
2023-03-30T13:08:23.555Z,15.30
2023-03-30T13:10:50.716Z,15.20
2023-03-30T13:13:48.841Z,15.10
2023-03-30T13:17:08.717Z,15.10
2023-03-30T13:19:38.386Z,15.10
2023-03-30T13:22:13.959Z,15.00
2023-03-30T13:24:53.848Z,14.90
2023-03-30T13:27:30.318Z,14.90
2023-03-30T13:30:09.166Z,14.80
2023-03-30T13:32:36.170Z,14.80
2023-03-30T13:35:31.407Z,14.60
2023-03-30T13:38:16.979Z,14.50
2023-03-30T13:41:07.998Z,14.50
2023-03-30T13:43:51.384Z,14.40
2023-03-30T13:46:32.776Z,14.40
2023-03-30T13:49:19.551Z,14.30
2023-03-30T13:51:47.896Z,14.20
2023-03-30T13:54:21.686Z,14.20
2023-03-30T13:56:59.730Z,14.20
2023-03-30T13:59:31.936Z,14.20
2023-03-30T14:02:01.702Z,14.10
2023-03-30T14:04:31.024Z,14.10
2023-03-30T14:06:58.666Z,14.10
2023-03-30T14:09:28.883Z,14.00
2023-03-30T14:11:58.980Z,14.00
2023-03-30T14:14:39.420Z,14.00
2023-03-30T14:17:19.916Z,13.90
2023-03-30T14:20:09.564Z,13.90
2023-03-30T14:22:41.594Z,13.90
2023-03-30T14:25:22.673Z,13.90
2023-03-30T14:27:49.768Z,13.90
2023-03-30T14:30:22.995Z,13.90
2023-03-30T14:33:28.790Z,13.90
2023-03-30T14:35:58.483Z,13.90
2023-03-30T14:38:41.365Z,13.80
2023-03-30T14:41:23.443Z,13.80
2023-03-30T14:43:53.614Z,13.80
2023-03-30T14:46:22.657Z,13.80
2023-03-30T14:48:50.865Z,13.90
2023-03-30T14:51:37.585Z,14.00
2023-03-30T14:54:06.408Z,14.10
2023-03-30T14:56:33.814Z,14.20
2023-03-30T14:59:01.982Z,14.20
2023-03-30T15:01:33.549Z,14.10
2023-03-30T15:04:11.130Z,14.10
2023-03-30T15:06:38.781Z,14.10
2023-03-30T15:09:13.476Z,14.00
2023-03-30T15:11:41.146Z,14.00
2023-03-30T15:14:10.109Z,13.90
2023-03-30T15:16:37.903Z,13.90
2023-03-30T15:19:31.140Z,13.80
2023-03-30T15:22:04.987Z,13.80
2023-03-30T15:24:36.028Z,13.80
2023-03-30T15:27:05.996Z,13.70
2023-03-30T15:29:34.082Z,13.70
2023-03-30T15:32:14.764Z,13.60
2023-03-30T15:35:15.734Z,13.60
2023-03-30T15:37:57.930Z,13.50
2023-03-30T15:40:41.693Z,13.40
2023-03-30T15:43:18.903Z,13.30
2023-03-30T15:45:53.168Z,13.20
2023-03-30T15:48:23.924Z,13.10
2023-03-30T15:51:02.782Z,13.00
2023-03-30T15:53:49.482Z,12.90
2023-03-30T15:56:38.439Z,12.90
2023-03-30T15:59:09.976Z,12.80
2023-03-30T16:01:56.734Z,12.80
2023-03-30T16:04:25.172Z,12.80
2023-03-30T16:06:52.929Z,12.80
2023-03-30T16:09:20.165Z,12.80
2023-03-30T16:11:47.647Z,12.80
2023-03-30T16:14:20.593Z,12.80
2023-03-30T16:16:48.731Z,12.80
2023-03-30T16:19:18.806Z,12.70
2023-03-30T16:21:46.336Z,12.70
2023-03-30T16:24:13.764Z,12.70
2023-03-30T16:26:41.021Z,12.60
2023-03-30T16:29:20.492Z,12.50
2023-03-30T16:31:48.981Z,12.50
2023-03-30T16:34:17.037Z,12.50
2023-03-30T16:36:45.881Z,12.50
2023-03-30T16:39:30.463Z,12.40
2023-03-30T16:41:58.062Z,12.50
2023-03-30T16:44:26.364Z,12.40
2023-03-30T16:46:53.390Z,12.40
2023-03-30T16:49:25.707Z,12.40
2023-03-30T16:51:55.335Z,12.50
2023-03-30T16:54:31.899Z,12.40
2023-03-30T16:57:01.368Z,12.40
2023-03-30T16:59:30.944Z,12.40
2023-03-30T17:02:02.258Z,12.40
2023-03-30T17:04:29.512Z,12.30
2023-03-30T17:06:56.683Z,12.30
2023-03-30T17:09:23.811Z,12.30
2023-03-30T17:11:51.557Z,12.30
2023-03-30T17:14:20.524Z,12.30
2023-03-30T17:16:48.113Z,12.20
2023-03-30T17:19:17.181Z,12.20
2023-03-30T17:21:46.137Z,12.20
2023-03-30T17:24:15.827Z,12.20
2023-03-30T17:26:43.658Z,12.20
2023-03-30T17:29:11.610Z,12.10
2023-03-30T17:31:39.519Z,12.10
2023-03-30T17:34:07.663Z,12.00
2023-03-30T17:36:35.551Z,12.00
2023-03-30T17:39:07.816Z,12.00
2023-03-30T17:41:35.892Z,11.90
2023-03-30T17:44:03.478Z,11.90
2023-03-30T17:46:33.054Z,11.90
2023-03-30T17:49:01.243Z,11.90
2023-03-30T17:51:30.034Z,11.90
2023-03-30T17:53:59.212Z,11.90
2023-03-30T17:56:27.266Z,11.90
2023-03-30T17:58:55.073Z,11.90
2023-03-30T18:01:23.186Z,11.90
2023-03-30T18:03:51.191Z,11.90
2023-03-30T18:06:18.826Z,12.00
2023-03-30T18:08:46.117Z,12.10
2023-03-30T18:11:15.058Z,12.20
2023-03-30T18:13:42.956Z,12.20
2023-03-30T18:16:18.070Z,12.30
2023-03-30T18:18:46.349Z,12.50
2023-03-30T18:21:15.501Z,12.50
2023-03-30T18:23:43.647Z,12.50
2023-03-30T18:26:13.976Z,12.60
2023-03-30T18:28:46.969Z,12.60
2023-03-30T18:31:15.117Z,12.60
2023-03-30T18:33:43.350Z,12.70
2023-03-30T18:36:13.469Z,12.70
2023-03-30T18:38:43.493Z,12.70
2023-03-30T18:41:13.606Z,12.80
2023-03-30T18:43:41.384Z,12.80
2023-03-30T18:46:14.682Z,12.90
2023-03-30T18:48:42.890Z,12.90
2023-03-30T18:51:13.546Z,13.00
2023-03-30T18:53:43.663Z,13.00
2023-03-30T18:56:14.530Z,13.00
2023-03-30T18:58:44.339Z,13.00
2023-03-30T19:01:13.886Z,13.10
2023-03-30T19:03:42.795Z,13.10
2023-03-30T19:06:23.464Z,13.10
2023-03-30T19:08:52.491Z,13.10
2023-03-30T19:11:26.848Z,13.10
2023-03-30T19:13:54.894Z,13.20
2023-03-30T19:16:23.436Z,13.20
2023-03-30T19:18:52.604Z,13.10
2023-03-30T19:21:20.783Z,13.20
2023-03-30T19:23:48.480Z,13.20
2023-03-30T19:26:16.869Z,13.10
2023-03-30T19:28:44.894Z,13.10
2023-03-30T19:31:16.607Z,13.10
2023-03-30T19:33:45.160Z,13.10
2023-03-30T19:36:13.063Z,13.10
2023-03-30T19:38:44.593Z,13.10
2023-03-30T19:41:12.816Z,13.10
2023-03-30T19:43:41.304Z,13.10
2023-03-30T19:46:09.510Z,13.10
2023-03-30T19:48:37.713Z,13.10
2023-03-30T19:51:06.647Z,13.00
2023-03-30T19:53:35.385Z,13.10
2023-03-30T19:56:03.459Z,13.00
2023-03-30T19:58:31.172Z,13.00
2023-03-30T20:01:04.842Z,13.00
2023-03-30T20:03:36.562Z,13.00
2023-03-30T20:06:05.362Z,13.00
2023-03-30T20:08:33.244Z,13.00
2023-03-30T20:11:00.425Z,12.90
2023-03-30T20:13:28.017Z,12.90
2023-03-30T20:15:56.435Z,12.90
2023-03-30T20:18:24.024Z,12.90
2023-03-30T20:20:51.284Z,12.90
2023-03-30T20:23:18.631Z,12.90
2023-03-30T20:25:49.462Z,12.90
2023-03-30T20:28:18.749Z,13.00
2023-03-30T20:30:47.187Z,12.90
2023-03-30T20:33:14.604Z,12.90
2023-03-30T20:35:42.139Z,12.90
2023-03-30T20:38:10.284Z,12.90
2023-03-30T20:40:38.608Z,12.90
2023-03-30T20:43:10.459Z,12.90
2023-03-30T20:46:01.569Z,12.90
2023-03-30T20:48:33.836Z,12.90
2023-03-30T20:51:05.455Z,12.90
2023-03-30T20:53:34.229Z,12.90
2023-03-30T20:56:02.374Z,12.90
2023-03-30T20:58:30.022Z,12.90
2023-03-30T21:01:02.229Z,12.90
2023-03-30T21:03:29.555Z,12.90
2023-03-30T21:06:05.191Z,12.90
2023-03-30T21:08:33.431Z,12.90
2023-03-30T21:11:01.808Z,12.90
2023-03-30T21:13:28.999Z,12.90
2023-03-30T21:16:02.412Z,12.90
2023-03-30T21:18:30.174Z,13.00
2023-03-30T21:20:57.578Z,13.00
2023-03-30T21:23:27.432Z,13.00
2023-03-30T21:25:56.732Z,13.00
2023-03-30T21:28:24.842Z,13.00
2023-03-30T21:30:51.944Z,13.00
2023-03-30T21:33:19.124Z,12.90
2023-03-30T21:35:53.432Z,12.80
2023-03-30T21:38:21.827Z,12.80
2023-03-30T21:40:55.671Z,12.70
2023-03-30T21:43:23.432Z,12.60
2023-03-30T21:45:56.207Z,12.50
2023-03-30T21:48:25.389Z,12.50
2023-03-30T21:50:59.468Z,12.40
2023-03-30T21:53:27.529Z,12.20
2023-03-30T21:55:54.690Z,12.10
2023-03-30T21:58:22.945Z,12.10
2023-03-30T22:00:58.336Z,12.00
2023-03-30T22:03:36.387Z,11.90
2023-03-30T22:06:08.080Z,11.90
2023-03-30T22:08:36.218Z,11.90
2023-03-30T22:11:04.856Z,11.90
2023-03-30T22:13:32.826Z,11.90
2023-03-30T22:16:01.233Z,11.90
2023-03-30T22:18:29.111Z,11.90
2023-03-30T22:21:04.193Z,11.90
2023-03-30T22:23:32.563Z,11.90
2023-03-30T22:26:00.503Z,11.80
2023-03-30T22:28:27.637Z,11.80
2023-03-30T22:30:54.940Z,11.80
2023-03-30T22:33:22.125Z,11.70
2023-03-30T22:35:49.408Z,11.70
2023-03-30T22:38:16.691Z,11.70
2023-03-30T22:40:43.837Z,11.60
2023-03-30T22:43:12.690Z,11.50
2023-03-30T22:45:40.782Z,11.50
2023-03-30T22:48:07.915Z,11.40
2023-03-30T22:50:36.415Z,11.40
2023-03-30T22:53:03.463Z,11.30
2023-03-30T22:55:30.631Z,11.30
2023-03-30T22:57:57.921Z,11.30
2023-03-30T23:00:25.669Z,11.20
2023-03-30T23:02:52.988Z,11.10
2023-03-30T23:05:21.504Z,11.10
2023-03-30T23:07:49.680Z,11.10
2023-03-30T23:10:22.433Z,11.00
2023-03-30T23:12:50.067Z,11.00
2023-03-30T23:15:18.794Z,10.90
2023-03-30T23:17:47.604Z,10.90
2023-03-30T23:20:15.571Z,10.90
2023-03-30T23:22:42.802Z,10.80
2023-03-30T23:25:10.972Z,10.80
2023-03-30T23:27:38.187Z,10.80
2023-03-30T23:30:06.457Z,10.80
2023-03-30T23:32:34.944Z,10.80
2023-03-30T23:35:05.306Z,10.80
2023-03-30T23:37:32.708Z,10.80
2023-03-30T23:40:02.196Z,10.70
2023-03-30T23:42:29.331Z,10.70
2023-03-30T23:44:56.477Z,10.70
2023-03-30T23:47:23.834Z,10.70
2023-03-30T23:49:50.907Z,10.70
2023-03-30T23:52:17.937Z,10.60
2023-03-30T23:54:44.920Z,10.60
2023-03-30T23:57:12.260Z,10.50
2023-03-30T23:59:39.407Z,10.50
